createdAt,value
2015-02-10T07:17:08.244Z,23
2015-02-10T07:17:26.434Z,22
2015-02-10T07:17:38.012Z,22
2015-02-10T07:17:49.590Z,22
2015-02-10T07:18:07.778Z,22
2015-02-10T07:18:19.356Z,22
2015-02-10T07:18:37.530Z,22
2015-02-10T07:18:49.139Z,22
2015-02-10T07:19:00.795Z,22
2015-02-10T07:19:12.405Z,22
2015-02-10T07:19:23.985Z,22
2015-02-10T07:19:35.625Z,22
2015-02-10T07:19:47.266Z,23
2015-02-10T07:19:58.907Z,23
2015-02-10T07:20:10.547Z,23
2015-02-10T07:20:22.160Z,23
2015-02-10T07:20:33.738Z,23
2015-02-10T07:20:45.363Z,23
2015-02-10T07:20:56.941Z,23
2015-02-10T07:21:08.519Z,23
2015-02-10T07:21:20.128Z,23
2015-02-10T07:21:31.709Z,23
2015-02-10T07:21:43.319Z,23
2015-02-10T07:22:01.538Z,23
2015-02-10T07:22:13.600Z,23
2015-02-10T07:22:25.148Z,23
2015-02-10T07:22:43.367Z,23
2015-02-10T07:22:55.023Z,23
2015-02-10T07:23:06.601Z,23
2015-02-10T07:23:24.807Z,23
2015-02-10T07:23:36.370Z,23
2015-02-10T07:23:47.979Z,23
2015-02-10T07:23:59.557Z,23
2015-02-10T07:24:17.807Z,23
2015-02-10T07:24:29.419Z,23
2015-02-10T07:24:41.090Z,23
2015-02-10T07:24:52.669Z,23
2015-02-10T07:25:04.278Z,23
2015-02-10T07:25:22.481Z,23
2015-02-10T07:25:40.671Z,23
2015-02-10T07:25:52.249Z,23
2015-02-10T07:26:03.858Z,23
2015-02-10T07:26:15.561Z,23
2015-02-10T07:26:27.189Z,23
2015-02-10T07:26:38.767Z,23
2015-02-10T07:26:50.330Z,23
2015-02-10T07:27:01.939Z,23
2015-02-10T07:27:13.549Z,23
2015-02-10T07:27:38.395Z,23
2015-02-10T07:27:50.130Z,23
2015-02-10T07:28:01.739Z,23
2015-02-10T07:28:26.600Z,23
2015-02-10T07:28:38.179Z,23
2015-02-10T07:28:49.804Z,23
2015-02-10T07:29:01.382Z,23
2015-02-10T07:29:13.007Z,23
2015-02-10T07:29:31.165Z,23
2015-02-10T07:29:42.774Z,23
2015-02-10T07:29:54.352Z,23
2015-02-10T07:30:05.946Z,23
2015-02-10T07:30:17.509Z,23
2015-02-10T07:30:29.059Z,23
2015-02-10T07:30:40.605Z,23
2015-02-10T07:31:05.418Z,23
2015-02-10T07:31:16.996Z,23
2015-02-10T07:31:28.545Z,23
2015-02-10T07:31:46.732Z,23
2015-02-10T07:31:58.357Z,23
2015-02-10T07:32:16.857Z,23
2015-02-10T07:32:28.406Z,23
2015-02-10T07:32:39.984Z,23
2015-02-10T07:32:51.859Z,23
2015-02-10T07:33:10.406Z,23
2015-02-10T07:33:28.596Z,23
2015-02-10T07:33:40.174Z,23
2015-02-10T07:33:51.752Z,23
2015-02-10T07:34:03.299Z,23
2015-02-10T07:34:14.908Z,23
2015-02-10T07:34:33.129Z,23
2015-02-10T07:34:44.738Z,23
2015-02-10T07:34:56.363Z,23
2015-02-10T07:35:07.926Z,23
2015-02-10T07:35:19.832Z,23
2015-02-10T07:35:31.442Z,23
2015-02-10T07:35:43.054Z,23
2015-02-10T07:36:01.413Z,23
2015-02-10T07:36:19.616Z,23
2015-02-10T07:36:31.210Z,23
2015-02-10T07:36:42.806Z,23
2015-02-10T07:37:00.978Z,23
2015-02-10T07:37:12.587Z,23
2015-02-10T07:37:24.134Z,23
2015-02-10T07:37:35.684Z,23
2015-02-10T07:37:53.887Z,23
2015-02-10T07:38:05.496Z,23
2015-02-10T07:38:23.684Z,23
2015-02-10T07:38:35.264Z,23
2015-02-10T07:38:46.795Z,23
2015-02-10T07:38:58.373Z,23
2015-02-10T07:39:09.936Z,23
2015-02-10T07:39:21.530Z,23
2015-02-10T07:39:33.110Z,23
2015-02-10T07:39:44.688Z,23
2015-02-10T07:39:56.235Z,23
2015-02-10T07:40:07.813Z,23
2015-02-10T07:40:26.000Z,23
2015-02-10T07:40:37.566Z,23
2015-02-10T07:40:49.128Z,23
2015-02-10T07:41:00.722Z,23
2015-02-10T07:41:12.503Z,23
2015-02-10T07:41:30.675Z,23
2015-02-10T07:41:42.240Z,23
2015-02-10T07:41:53.865Z,23
2015-02-10T07:42:05.490Z,23
2015-02-10T07:42:17.052Z,23
2015-02-10T07:42:41.882Z,23
2015-02-10T07:42:53.445Z,23
2015-02-10T07:43:11.664Z,23
2015-02-10T07:43:23.242Z,23
2015-02-10T07:43:34.791Z,23
2015-02-10T07:43:46.400Z,23
2015-02-10T07:43:57.947Z,23
2015-02-10T07:44:09.541Z,23
2015-02-10T07:44:22.853Z,23
2015-02-10T07:44:41.262Z,23
2015-02-10T07:44:52.856Z,23
2015-02-10T07:45:04.434Z,23
2015-02-10T07:45:22.637Z,23
2015-02-10T07:45:34.169Z,23
2015-02-10T07:45:45.843Z,23
2015-02-10T07:45:57.468Z,23
2015-02-10T07:46:15.718Z,23
2015-02-10T07:46:27.327Z,23
2015-02-10T07:46:45.502Z,23
2015-02-10T07:46:57.080Z,23
2015-02-10T07:47:08.705Z,23
2015-02-10T07:47:20.330Z,23
2015-02-10T07:47:32.002Z,23
2015-02-10T07:47:50.223Z,23
2015-02-10T07:48:08.441Z,22
2015-02-10T07:48:26.644Z,22
2015-02-10T07:48:38.209Z,22
2015-02-10T07:48:49.803Z,22
2015-02-10T07:49:01.381Z,22
2015-02-10T07:49:12.928Z,22
2015-02-10T07:49:24.506Z,22
2015-02-10T07:49:36.068Z,22
2015-02-10T07:49:47.648Z,22
2015-02-10T07:49:59.227Z,22
2015-02-10T07:50:10.789Z,22
2015-02-10T07:50:22.836Z,22
2015-02-10T07:50:37.620Z,22
2015-02-10T07:50:55.964Z,22
2015-02-10T07:51:14.167Z,22
2015-02-10T07:51:26.183Z,22
2015-02-10T07:51:37.810Z,22
2015-02-10T07:51:55.997Z,22
2015-02-10T07:52:07.575Z,22
2015-02-10T07:52:19.153Z,22
2015-02-10T07:52:30.732Z,22
2015-02-10T07:52:42.312Z,22
2015-02-10T07:52:53.859Z,22
2015-02-10T07:53:05.484Z,22
2015-02-10T07:53:23.640Z,22
2015-02-10T07:53:35.202Z,22
2015-02-10T07:53:46.782Z,22
2015-02-10T07:54:04.970Z,22
2015-02-10T07:54:23.157Z,22
2015-02-10T07:54:34.845Z,22
2015-02-10T07:54:46.410Z,22
2015-02-10T07:55:04.645Z,22
2015-02-10T07:55:16.207Z,22
2015-02-10T07:55:27.770Z,22
2015-02-10T07:55:45.928Z,22
2015-02-10T07:55:57.506Z,22
2015-02-10T07:56:15.819Z,22
2015-02-10T07:56:27.381Z,22
2015-02-10T07:56:38.946Z,22
2015-02-10T07:56:50.555Z,22
2015-02-10T07:57:02.149Z,22
2015-02-10T07:57:13.727Z,22
2015-02-10T07:57:25.336Z,22
2015-02-10T07:57:43.558Z,22
2015-02-10T07:57:55.089Z,22
2015-02-10T07:58:13.277Z,22
2015-02-10T07:58:24.980Z,22
2015-02-10T07:58:43.233Z,22
2015-02-10T07:58:54.858Z,22
2015-02-10T07:59:12.920Z,22
2015-02-10T07:59:24.561Z,22
2015-02-10T07:59:36.139Z,22
2015-02-10T07:59:47.718Z,22
2015-02-10T07:59:59.296Z,22
2015-02-10T08:00:10.859Z,22
2015-02-10T08:00:22.437Z,22
2015-02-10T08:00:34.031Z,22
2015-02-10T08:00:45.612Z,22
2015-02-10T08:00:57.159Z,22
2015-02-10T08:01:15.362Z,22
2015-02-10T08:01:26.909Z,22
2015-02-10T08:01:38.505Z,22
2015-02-10T08:01:56.708Z,22
2015-02-10T08:02:08.255Z,22
2015-02-10T08:02:26.598Z,22
2015-02-10T08:02:38.176Z,22
2015-02-10T08:03:03.022Z,22
2015-02-10T08:03:14.600Z,22
2015-02-10T08:03:26.147Z,22
2015-02-10T08:03:37.678Z,22
2015-02-10T08:03:49.275Z,22
2015-02-10T08:04:00.822Z,22
2015-02-10T08:04:19.025Z,22
2015-02-10T08:04:30.588Z,22
2015-02-10T08:04:48.793Z,22
2015-02-10T08:05:00.340Z,22
2015-02-10T08:05:11.918Z,22
2015-02-10T08:05:23.512Z,22
2015-02-10T08:05:35.074Z,22
2015-02-10T08:05:46.686Z,22
2015-02-10T08:05:58.265Z,22
2015-02-10T08:06:09.827Z,22
2015-02-10T08:06:21.327Z,22
2015-02-10T08:06:32.936Z,22
2015-02-10T08:06:44.517Z,22
2015-02-10T08:07:02.704Z,22
2015-02-10T08:07:14.282Z,22
2015-02-10T08:07:25.829Z,22
2015-02-10T08:07:37.392Z,22
2015-02-10T08:07:49.050Z,22
2015-02-10T08:08:00.675Z,22
2015-02-10T08:08:12.237Z,22
2015-02-10T08:08:23.815Z,22
2015-02-10T08:08:35.487Z,22
2015-02-10T08:08:47.615Z,22
2015-02-10T08:09:01.568Z,22
2015-02-10T08:09:22.881Z,22
2015-02-10T08:09:41.131Z,22
2015-02-10T08:09:52.836Z,22
2015-02-10T08:10:11.758Z,22
2015-02-10T08:10:23.430Z,22
2015-02-10T08:10:41.836Z,22
2015-02-10T08:11:00.072Z,22
2015-02-10T08:11:18.479Z,22
2015-02-10T08:11:30.182Z,22
2015-02-10T08:11:42.057Z,22
2015-02-10T08:11:54.481Z,22
2015-02-10T08:12:13.465Z,22
2015-02-10T08:12:31.621Z,22
2015-02-10T08:12:43.293Z,22
2015-02-10T08:12:54.999Z,22
2015-02-10T08:13:06.624Z,22
2015-02-10T08:13:19.124Z,22
2015-02-10T08:13:30.765Z,21
2015-02-10T08:13:49.015Z,21
2015-02-10T08:14:02.283Z,19
2015-02-10T08:14:27.783Z,19
2015-02-10T08:14:39.439Z,17
2015-02-10T08:14:51.113Z,17
2015-02-10T08:15:09.456Z,16
2015-02-10T08:15:21.175Z,16
2015-02-10T08:15:32.816Z,15
2015-02-10T08:15:44.535Z,15
2015-02-10T08:15:57.319Z,14
2015-02-10T08:16:15.600Z,14
2015-02-10T08:16:27.256Z,13
2015-02-10T08:16:52.102Z,13
2015-02-10T08:17:10.430Z,13
2015-02-10T08:17:22.133Z,12
2015-02-10T08:17:33.774Z,12
2015-02-10T08:17:45.477Z,12
2015-02-10T08:17:57.151Z,12
2015-02-10T08:18:08.979Z,12
2015-02-10T08:18:20.667Z,11
2015-02-10T08:18:33.495Z,11
2015-02-10T08:18:45.182Z,11
2015-02-10T08:19:03.498Z,11
2015-02-10T08:19:16.248Z,11
2015-02-10T08:19:27.951Z,11
2015-02-10T08:19:41.701Z,11
2015-02-10T08:20:00.562Z,11
2015-02-10T08:20:13.234Z,11
2015-02-10T08:20:25.172Z,10
2015-02-10T08:20:39.156Z,11
2015-02-10T08:20:58.345Z,10
2015-02-10T08:21:17.142Z,10
2015-02-10T08:21:28.861Z,10
2015-02-10T08:21:47.174Z,10
2015-02-10T08:21:58.786Z,10
2015-02-10T08:22:20.348Z,10
2015-02-10T08:22:38.630Z,10
2015-02-10T08:22:50.302Z,10
2015-02-10T08:23:15.147Z,10
2015-02-10T08:23:26.850Z,10
2015-02-10T08:23:40.475Z,10
2015-02-10T08:24:02.587Z,10
2015-02-10T08:25:18.887Z,10
2015-02-10T08:25:31.699Z,9
2015-02-10T08:25:43.418Z,9
2015-02-10T08:26:05.420Z,9
2015-02-10T08:27:21.517Z,9
2015-02-10T08:27:39.814Z,9
2015-02-10T08:27:51.548Z,9
2015-02-10T08:28:03.253Z,9
2015-02-10T08:28:15.550Z,9
2015-02-10T08:28:27.284Z,9
2015-02-10T08:28:39.019Z,9
2015-02-10T08:28:52.566Z,9
2015-02-10T08:29:04.724Z,9
2015-02-10T08:29:29.599Z,9
2015-02-10T08:29:43.052Z,9
2015-02-10T08:29:54.708Z,9
2015-02-10T08:30:19.602Z,9
2015-02-10T08:30:31.196Z,10
2015-02-10T08:30:42.836Z,10
2015-02-10T08:30:54.446Z,11
2015-02-10T08:31:06.104Z,11
2015-02-10T08:31:17.682Z,12
2015-02-10T08:31:29.291Z,12
2015-02-10T08:31:40.885Z,13
2015-02-10T08:31:52.526Z,13
2015-02-10T08:32:04.153Z,14
2015-02-10T08:32:15.825Z,14
2015-02-10T08:32:27.418Z,15
2015-02-10T08:32:39.012Z,15
2015-02-10T08:33:03.936Z,15
2015-02-10T08:33:15.530Z,16
2015-02-10T08:33:27.170Z,16
2015-02-10T08:33:38.764Z,17
2015-02-10T08:33:50.358Z,17
2015-02-10T08:34:01.998Z,17
2015-02-10T08:34:14.361Z,17
2015-02-10T08:34:25.955Z,18
2015-02-10T08:34:44.173Z,18
2015-02-10T08:34:55.783Z,18
2015-02-10T08:35:07.441Z,18
2015-02-10T08:35:19.050Z,18
2015-02-10T08:35:37.300Z,19
2015-02-10T08:35:55.519Z,19
2015-02-10T08:36:07.115Z,19
2015-02-10T08:36:18.693Z,19
2015-02-10T08:36:30.287Z,19
2015-02-10T08:36:41.896Z,19
2015-02-10T08:36:53.505Z,19
2015-02-10T08:37:05.180Z,19
2015-02-10T08:37:16.821Z,19
2015-02-10T08:37:28.805Z,20
2015-02-10T08:37:47.071Z,20
2015-02-10T08:37:58.696Z,20
2015-02-10T08:38:10.354Z,20
2015-02-10T08:38:35.542Z,20
2015-02-10T08:38:53.760Z,20
2015-02-10T08:39:05.419Z,20
2015-02-10T08:39:24.419Z,20
2015-02-10T08:39:36.044Z,20
2015-02-10T08:39:54.247Z,20
2015-02-10T08:40:12.562Z,20
2015-02-10T08:40:24.172Z,20
2015-02-10T08:40:35.922Z,20
2015-02-10T08:40:54.109Z,20
2015-02-10T08:41:05.859Z,20
2015-02-10T08:41:17.517Z,21
2015-02-10T08:41:29.174Z,20
2015-02-10T08:41:54.127Z,21
2015-02-10T08:42:06.142Z,21
2015-02-10T08:43:12.163Z,21
2015-02-10T08:43:26.585Z,21
2015-02-10T08:43:40.585Z,21
2015-02-10T08:43:57.179Z,21
2015-02-10T08:44:08.821Z,21
2015-02-10T08:44:20.524Z,21
2015-02-10T08:44:38.853Z,21
2015-02-10T08:44:50.478Z,21
2015-02-10T08:45:02.790Z,21
2015-02-10T08:45:27.651Z,21
2015-02-10T08:45:45.917Z,21
2015-02-10T08:45:57.542Z,21
2015-02-10T08:46:10.154Z,21
2015-02-10T08:46:22.404Z,21
2015-02-10T08:46:41.404Z,21
2015-02-10T08:46:53.029Z,21
2015-02-10T08:47:11.250Z,21
2015-02-10T08:47:29.500Z,21
2015-02-10T08:47:41.156Z,21
2015-02-10T08:47:52.844Z,21
2015-02-10T08:48:11.112Z,21
2015-02-10T08:48:22.815Z,21
2015-02-10T08:48:35.127Z,21
2015-02-10T08:48:46.737Z,21
2015-02-10T08:49:05.049Z,21
2015-02-10T08:49:16.724Z,21
2015-02-10T08:49:35.927Z,21
2015-02-10T08:49:48.240Z,21
2015-02-10T08:49:59.865Z,21
2015-02-10T08:50:11.523Z,21
2015-02-10T08:50:24.320Z,21
2015-02-10T08:50:36.226Z,21
2015-02-10T08:50:54.476Z,21
2015-02-10T08:51:58.791Z,21
2015-02-10T08:52:10.776Z,21
2015-02-10T08:52:22.450Z,21
2015-02-10T08:52:34.106Z,21
2015-02-10T08:52:46.293Z,21
2015-02-10T08:52:57.918Z,21
2015-02-10T08:53:09.575Z,21
2015-02-10T08:53:21.280Z,21
2015-02-10T08:53:32.889Z,21
2015-02-10T08:53:44.483Z,21
2015-02-10T08:53:56.077Z,21
2015-02-10T08:54:07.717Z,21
2015-02-10T08:54:19.330Z,21
2015-02-10T08:54:44.189Z,21
2015-02-10T08:54:55.798Z,21
2015-02-10T08:55:07.423Z,21
2015-02-10T08:55:19.019Z,21
2015-02-10T08:55:31.316Z,21
2015-02-10T08:55:42.925Z,21
2015-02-10T08:55:54.519Z,21
2015-02-10T08:56:06.129Z,21
2015-02-10T08:56:17.755Z,21
2015-02-10T08:56:29.364Z,21
2015-02-10T08:56:40.989Z,21
2015-02-10T08:56:52.755Z,21
2015-02-10T08:57:11.020Z,21
2015-02-10T08:57:29.289Z,21
2015-02-10T08:57:40.914Z,21
2015-02-10T08:57:52.523Z,21
2015-02-10T08:58:04.117Z,21
2015-02-10T08:58:15.760Z,21
2015-02-10T08:58:27.353Z,21
2015-02-10T08:58:38.963Z,21
2015-02-10T08:58:50.619Z,21
2015-02-10T08:59:02.244Z,21
2015-02-10T08:59:20.466Z,21
2015-02-10T08:59:32.169Z,21
2015-02-10T08:59:50.388Z,21
2015-02-10T09:00:02.028Z,21
2015-02-10T09:00:20.311Z,21
2015-02-10T09:00:31.983Z,21
2015-02-10T09:00:43.640Z,21
2015-02-10T09:00:55.265Z,21
2015-02-10T09:01:06.952Z,21
2015-02-10T09:01:18.563Z,21
2015-02-10T09:01:30.204Z,21
2015-02-10T09:01:48.438Z,21
2015-02-10T09:02:00.110Z,21
2015-02-10T09:02:12.548Z,21
2015-02-10T09:02:24.207Z,21
2015-02-10T09:02:35.832Z,21
2015-02-10T09:02:47.457Z,21
2015-02-10T09:03:05.723Z,21
2015-02-10T09:03:17.381Z,21
2015-02-10T09:03:29.834Z,21
2015-02-10T09:03:41.522Z,21
2015-02-10T09:03:53.162Z,21
2015-02-10T09:04:04.850Z,21
2015-02-10T09:04:16.508Z,21
2015-02-10T09:04:28.320Z,21
2015-02-10T09:04:39.992Z,21
2015-02-10T09:04:51.836Z,21
2015-02-10T09:05:03.555Z,21
2015-02-10T09:05:15.242Z,21
2015-02-10T09:05:26.948Z,21
2015-02-10T09:05:45.245Z,21
2015-02-10T09:05:57.027Z,21
2015-02-10T09:06:08.667Z,21
2015-02-10T09:06:26.919Z,21
2015-02-10T09:06:38.544Z,21
2015-02-10T09:06:50.138Z,21
2015-02-10T09:07:08.372Z,21
2015-02-10T09:07:20.032Z,21
2015-02-10T09:07:31.688Z,21
2015-02-10T09:07:43.297Z,21
2015-02-10T09:07:54.922Z,21
2015-02-10T09:08:13.188Z,21
2015-02-10T09:08:24.783Z,21
2015-02-10T09:08:36.423Z,21
2015-02-10T09:08:54.689Z,21
2015-02-10T09:09:06.314Z,21
2015-02-10T09:09:18.004Z,21
2015-02-10T09:09:29.661Z,21
2015-02-10T09:09:41.301Z,21
2015-02-10T09:09:53.176Z,21
2015-02-10T09:10:04.926Z,21
2015-02-10T09:10:29.850Z,21
2015-02-10T09:10:41.459Z,21
2015-02-10T09:10:59.881Z,21
2015-02-10T09:11:24.712Z,21
2015-02-10T09:11:36.353Z,21
2015-02-10T09:11:47.962Z,21
2015-02-10T09:12:06.712Z,21
2015-02-10T09:12:18.371Z,21
2015-02-10T09:12:29.980Z,21
2015-02-10T09:12:41.605Z,21
2015-02-10T09:12:53.230Z,21
2015-02-10T09:13:11.511Z,21
2015-02-10T09:13:23.107Z,21
2015-02-10T09:13:41.357Z,21
2015-02-10T09:13:53.170Z,21
2015-02-10T09:14:04.779Z,21
2015-02-10T09:14:16.513Z,21
2015-02-10T09:14:35.047Z,21
2015-02-10T09:14:53.343Z,21
2015-02-10T09:15:04.968Z,21
2015-02-10T09:15:16.562Z,21
2015-02-10T09:15:28.331Z,21
2015-02-10T09:15:47.003Z,21
2015-02-10T09:15:58.596Z,21
2015-02-10T09:16:10.206Z,21
2015-02-10T09:16:28.428Z,21
2015-02-10T09:16:40.068Z,21
2015-02-10T09:16:51.709Z,21
2015-02-10T09:17:03.271Z,21
2015-02-10T09:17:14.896Z,21
2015-02-10T09:17:26.555Z,21
2015-02-10T09:17:38.180Z,21
2015-02-10T09:17:49.820Z,21
2015-02-10T09:18:01.430Z,21
2015-02-10T09:18:13.055Z,21
2015-02-10T09:18:31.307Z,21
2015-02-10T09:18:49.666Z,21
2015-02-10T09:19:08.135Z,21
2015-02-10T09:19:26.341Z,21
2015-02-10T09:19:44.575Z,21
2015-02-10T09:19:56.247Z,21
2015-02-10T09:20:07.888Z,21
2015-02-10T09:20:19.528Z,21
2015-02-10T09:20:31.139Z,21
2015-02-10T09:20:49.404Z,21
2015-02-10T09:21:07.701Z,21
2015-02-10T09:21:19.342Z,21
2015-02-10T09:21:30.954Z,21
2015-02-10T09:21:42.610Z,21
2015-02-10T09:21:54.204Z,21
2015-02-10T09:22:05.814Z,21
2015-02-10T09:22:24.048Z,21
2015-02-10T09:22:35.691Z,21
2015-02-10T09:22:47.284Z,21
2015-02-10T09:22:58.925Z,21
2015-02-10T09:23:10.581Z,21
2015-02-10T09:23:24.019Z,21
2015-02-10T09:23:35.786Z,21
2015-02-10T09:23:47.568Z,21
2015-02-10T09:24:00.364Z,21
2015-02-10T09:24:12.193Z,21
2015-02-10T09:24:24.302Z,21
2015-02-10T09:24:36.211Z,21
2015-02-10T09:24:48.461Z,21
2015-02-10T09:25:00.164Z,21
2015-02-10T09:25:12.617Z,21
2015-02-10T09:25:24.586Z,21
2015-02-10T09:25:43.713Z,21
2015-02-10T09:25:55.432Z,21
2015-02-10T09:26:07.369Z,21
2015-02-10T09:26:19.135Z,21
2015-02-10T09:26:30.888Z,21
2015-02-10T09:26:42.669Z,21
2015-02-10T09:26:54.638Z,21
2015-02-10T09:27:06.372Z,21
2015-02-10T09:27:18.013Z,21
2015-02-10T09:27:29.671Z,21
2015-02-10T09:27:41.296Z,21
2015-02-10T09:27:52.953Z,21
2015-02-10T09:28:04.593Z,21
2015-02-10T09:28:22.937Z,21
2015-02-10T09:28:34.720Z,21
2015-02-10T09:28:46.439Z,21
2015-02-10T09:28:58.236Z,21
2015-02-10T09:29:10.095Z,21
2015-02-10T09:29:22.001Z,21
2015-02-10T09:29:33.707Z,21
2015-02-10T09:29:45.644Z,21
2015-02-10T09:30:04.113Z,21
2015-02-10T09:30:15.863Z,21
2015-02-10T09:30:27.521Z,21
2015-02-10T09:30:45.865Z,21
2015-02-10T09:30:57.802Z,21
2015-02-10T09:31:16.568Z,21
2015-02-10T09:31:28.290Z,21
2015-02-10T09:31:46.587Z,21
2015-02-10T09:31:58.602Z,21
2015-02-10T09:32:10.821Z,21
2015-02-10T09:32:22.430Z,21
2015-02-10T09:32:34.073Z,21
2015-02-10T09:32:45.698Z,21
2015-02-10T09:33:03.964Z,21
2015-02-10T09:33:15.573Z,21
2015-02-10T09:33:33.795Z,21
2015-02-10T09:33:45.435Z,21
2015-02-10T09:33:57.060Z,21
2015-02-10T09:34:15.326Z,21
2015-02-10T09:34:26.935Z,21
2015-02-10T09:34:38.609Z,21
2015-02-10T09:34:50.234Z,21
2015-02-10T09:35:01.859Z,21
2015-02-10T09:35:13.469Z,21
2015-02-10T09:35:25.109Z,21
2015-02-10T09:35:36.753Z,21
2015-02-10T09:36:38.785Z,21
2015-02-10T09:36:50.426Z,21
2015-02-10T09:37:02.051Z,21
2015-02-10T09:37:13.676Z,21
2015-02-10T09:37:25.316Z,21
2015-02-10T09:37:36.991Z,21
2015-02-10T09:37:48.616Z,21
2015-02-10T09:38:00.210Z,21
2015-02-10T09:38:11.866Z,21
2015-02-10T09:38:23.491Z,21
2015-02-10T09:38:41.806Z,21
2015-02-10T09:38:53.431Z,21
2015-02-10T09:39:05.087Z,21
2015-02-10T09:39:16.681Z,22
2015-02-10T09:39:34.965Z,21
2015-02-10T09:39:46.606Z,21
2015-02-10T09:40:04.840Z,21
2015-02-10T09:40:16.465Z,21
2015-02-10T09:40:34.701Z,21
2015-02-10T09:40:52.967Z,21
2015-02-10T09:41:04.576Z,21
2015-02-10T09:41:16.186Z,21
2015-02-10T09:41:27.811Z,21
2015-02-10T09:41:46.047Z,21
2015-02-10T09:41:57.688Z,21
2015-02-10T09:42:09.313Z,21
2015-02-10T09:42:27.578Z,21
2015-02-10T09:42:39.206Z,21
2015-02-10T09:42:50.831Z,21
2015-02-10T09:43:02.456Z,21
2015-02-10T09:43:14.050Z,21
2015-02-10T09:43:25.675Z,21
2015-02-10T09:43:37.302Z,21
2015-02-10T09:43:55.521Z,21
2015-02-10T09:44:07.161Z,21
2015-02-10T09:44:18.771Z,21
2015-02-10T09:44:30.365Z,21
2015-02-10T09:44:41.960Z,21
2015-02-10T09:44:53.585Z,21
2015-02-10T09:45:05.226Z,21
2015-02-10T09:45:16.804Z,21
2015-02-10T09:45:28.429Z,21
2015-02-10T09:45:40.009Z,21
2015-02-10T09:45:58.244Z,21
2015-02-10T09:46:09.869Z,21
2015-02-10T09:46:28.119Z,21
2015-02-10T09:46:39.715Z,21
2015-02-10T09:46:51.340Z,21
2015-02-10T09:47:16.153Z,21
2015-02-10T09:47:41.030Z,21
2015-02-10T09:47:52.639Z,21
2015-02-10T09:48:10.874Z,21
2015-02-10T09:48:22.499Z,21
2015-02-10T09:48:40.736Z,21
2015-02-10T09:48:59.048Z,21
2015-02-10T09:49:10.673Z,21
2015-02-10T09:49:22.267Z,21
2015-02-10T09:49:33.877Z,21
2015-02-10T09:49:45.519Z,21
2015-02-10T09:49:57.129Z,21
2015-02-10T09:50:09.285Z,21
2015-02-10T09:50:27.535Z,21
2015-02-10T09:50:45.787Z,21
2015-02-10T09:51:04.037Z,21
2015-02-10T09:51:15.662Z,21
2015-02-10T09:51:27.287Z,21
2015-02-10T09:51:38.961Z,21
2015-02-10T09:51:50.554Z,21
2015-02-10T09:52:02.195Z,21
2015-02-10T09:52:20.414Z,21
2015-02-10T09:52:32.039Z,21
2015-02-10T09:52:50.245Z,21
2015-02-10T09:53:01.886Z,21
2015-02-10T09:53:20.104Z,21
2015-02-10T09:53:31.698Z,21
2015-02-10T09:53:49.934Z,21
2015-02-10T09:54:01.559Z,21
2015-02-10T09:54:13.184Z,21
2015-02-10T09:54:24.794Z,21
2015-02-10T09:54:36.436Z,21
2015-02-10T09:54:57.671Z,21
2015-02-10T09:55:09.280Z,21
2015-02-10T09:55:20.858Z,21
2015-02-10T09:55:32.515Z,21
2015-02-10T09:55:44.127Z,21
2015-02-10T09:55:55.752Z,21
2015-02-10T09:56:07.361Z,21
2015-02-10T09:57:13.504Z,21
2015-02-10T09:57:25.113Z,21
2015-02-10T09:57:36.740Z,21
2015-02-10T09:57:48.365Z,21
2015-02-10T09:57:59.990Z,21
2015-02-10T09:58:11.631Z,21
2015-02-10T09:58:23.287Z,21
2015-02-10T09:58:34.912Z,21
2015-02-10T09:58:59.758Z,21
2015-02-10T09:59:11.383Z,21
2015-02-10T09:59:29.695Z,21
2015-02-10T09:59:41.292Z,21
2015-02-10T09:59:59.527Z,21
2015-02-10T10:00:17.823Z,21
2015-02-10T10:00:29.402Z,21
2015-02-10T10:00:41.045Z,21
2015-02-10T10:00:52.733Z,21
2015-02-10T10:01:04.358Z,21
2015-02-10T10:01:15.951Z,21
2015-02-10T10:01:34.186Z,21
2015-02-10T10:01:52.391Z,21
2015-02-10T10:02:04.000Z,21
2015-02-10T10:02:22.235Z,21
2015-02-10T10:02:33.860Z,21
2015-02-10T10:02:45.487Z,22
2015-02-10T10:02:57.065Z,21
2015-02-10T10:03:08.674Z,21
2015-02-10T10:03:20.830Z,21
2015-02-10T10:03:39.755Z,22
2015-02-10T10:03:52.146Z,22
2015-02-10T10:04:03.740Z,21
2015-02-10T10:04:15.349Z,22
2015-02-10T10:04:28.068Z,22
2015-02-10T10:04:40.100Z,21
2015-02-10T10:04:52.131Z,21
2015-02-10T10:05:10.538Z,21
2015-02-10T10:05:35.366Z,21
2015-02-10T10:05:49.994Z,21
2015-02-10T10:06:01.572Z,22
2015-02-10T10:06:13.166Z,22
2015-02-10T10:06:31.322Z,22
2015-02-10T10:06:42.871Z,22
2015-02-10T10:06:54.496Z,22
2015-02-10T10:07:06.074Z,22
2015-02-10T10:07:30.949Z,22
2015-02-10T10:07:49.186Z,22
2015-02-10T10:08:00.780Z,22
2015-02-10T10:08:12.358Z,22
2015-02-10T10:08:23.967Z,22
2015-02-10T10:08:35.577Z,22
2015-02-10T10:08:47.563Z,22
2015-02-10T10:09:05.782Z,22
2015-02-10T10:09:17.391Z,22
2015-02-10T10:09:29.001Z,22
2015-02-10T10:09:40.643Z,22
2015-02-10T10:09:52.253Z,22
2015-02-10T10:10:10.550Z,22
2015-02-10T10:10:28.800Z,22
2015-02-10T10:10:40.849Z,22
2015-02-10T10:10:55.834Z,22
2015-02-10T10:11:07.787Z,22
2015-02-10T10:11:19.521Z,22
2015-02-10T10:11:31.099Z,22
2015-02-10T10:11:42.648Z,22
2015-02-10T10:11:54.258Z,22
2015-02-10T10:12:05.883Z,22
2015-02-10T10:12:17.492Z,22
2015-02-10T10:12:35.726Z,22
2015-02-10T10:12:47.353Z,22
2015-02-10T10:12:58.963Z,22
2015-02-10T10:13:10.869Z,22
2015-02-10T10:13:22.557Z,22
2015-02-10T10:13:34.338Z,22
2015-02-10T10:13:45.965Z,22
2015-02-10T10:13:57.668Z,22
2015-02-10T10:14:09.387Z,22
2015-02-10T10:14:27.684Z,22
2015-02-10T10:14:39.402Z,22
2015-02-10T10:14:51.077Z,22
2015-02-10T10:15:02.749Z,22
2015-02-10T10:15:14.421Z,22
2015-02-10T10:15:26.093Z,22
2015-02-10T10:15:37.796Z,22
2015-02-10T10:15:49.485Z,22
2015-02-10T10:16:01.142Z,22
2015-02-10T10:16:12.767Z,22
2015-02-10T10:16:24.407Z,22
2015-02-10T10:16:36.064Z,22
2015-02-10T10:16:47.676Z,22
2015-02-10T10:16:59.285Z,22
2015-02-10T10:17:17.488Z,22
2015-02-10T10:17:29.113Z,22
2015-02-10T10:17:40.770Z,22
2015-02-10T10:17:52.397Z,22
2015-02-10T10:18:04.037Z,22
2015-02-10T10:18:22.287Z,21
2015-02-10T10:18:33.865Z,21
2015-02-10T10:18:58.774Z,21
2015-02-10T10:19:10.414Z,21
2015-02-10T10:19:28.633Z,21
2015-02-10T10:19:40.274Z,21
2015-02-10T10:19:51.901Z,21
2015-02-10T10:20:03.557Z,21
2015-02-10T10:20:15.166Z,22
2015-02-10T10:20:26.776Z,21
2015-02-10T10:20:51.637Z,21
2015-02-10T10:21:03.262Z,22
2015-02-10T10:21:23.465Z,21
2015-02-10T10:21:35.153Z,21
2015-02-10T10:21:46.796Z,21
2015-02-10T10:22:05.031Z,21
2015-02-10T10:22:23.249Z,21
2015-02-10T10:22:34.843Z,21
2015-02-10T10:22:46.502Z,21
2015-02-10T10:22:58.127Z,21
2015-02-10T10:23:09.752Z,21
2015-02-10T10:23:34.940Z,21
2015-02-10T10:23:50.536Z,21
2015-02-10T10:24:08.786Z,21
2015-02-10T10:24:20.379Z,21
2015-02-10T10:24:31.958Z,21
2015-02-10T10:24:43.536Z,21
2015-02-10T10:24:55.163Z,21
2015-02-10T10:25:06.788Z,21
2015-02-10T10:25:25.022Z,21
2015-02-10T10:25:43.256Z,21
2015-02-10T10:25:54.837Z,21
2015-02-10T10:26:06.477Z,21
2015-02-10T10:26:18.180Z,21
2015-02-10T10:26:29.774Z,21
2015-02-10T10:26:48.058Z,21
2015-02-10T10:26:59.683Z,21
2015-02-10T10:27:11.277Z,21
2015-02-10T10:27:22.886Z,21
2015-02-10T10:27:34.496Z,21
2015-02-10T10:27:46.090Z,21
2015-02-10T10:27:57.701Z,21
2015-02-10T10:28:09.326Z,21
2015-02-10T10:28:20.935Z,21
2015-02-10T10:28:39.185Z,21
2015-02-10T10:28:50.797Z,21
2015-02-10T10:29:02.437Z,21
2015-02-10T10:29:14.109Z,21
2015-02-10T10:29:25.781Z,21
2015-02-10T10:29:37.469Z,21
2015-02-10T10:29:49.065Z,21
2015-02-10T10:30:07.284Z,21
2015-02-10T10:30:18.878Z,21
2015-02-10T10:30:30.472Z,21
2015-02-10T10:30:42.331Z,21
2015-02-10T10:31:00.645Z,21
2015-02-10T10:31:12.317Z,21
2015-02-10T10:31:23.958Z,21
2015-02-10T10:31:35.599Z,21
2015-02-10T10:31:47.224Z,22
2015-02-10T10:31:58.835Z,21
2015-02-10T10:32:17.085Z,21
2015-02-10T10:32:42.007Z,21
2015-02-10T10:32:53.682Z,21
2015-02-10T10:33:05.307Z,21
2015-02-10T10:33:16.900Z,21
2015-02-10T10:33:41.807Z,21
2015-02-10T10:33:53.418Z,21
2015-02-10T10:34:18.277Z,21
2015-02-10T10:34:29.965Z,21
2015-02-10T10:34:41.621Z,21
2015-02-10T10:34:53.264Z,21
2015-02-10T10:35:04.858Z,21
2015-02-10T10:35:16.483Z,21
2015-02-10T10:35:28.217Z,21
2015-02-10T10:35:46.529Z,21
2015-02-10T10:36:04.781Z,21
2015-02-10T10:36:16.422Z,21